NSZ261 ESSA-EFHK
Flight info
| Callsign | NSZ261 |
|---|---|
| Flight time | 0h 49m |
| Altitude | 31000 |
| Route | TOVRI N851 RIKUM DCT RIRIP Y364 LAKUT |
| Aircraft | B38M/M-SDE1FGHILORVWXY/HB1 |
Departure
| Time | 2026-04-20 16:10 |
|---|---|
| Airport | Stockholm-Arlanda Airport (ESSA) |
Arrival
| Time | 2026-04-20 16:59 |
|---|---|
| Airport | Helsinki Vantaa Airport (EFHK) |
| Time | Latitude | Longitude | Altitude | Speed | Heading |
|---|---|---|---|---|---|
| 2026-04-20 15:28 | 59.65433 | 17.93507 | 140 ft | 0 kts | 74° |
| 2026-04-20 15:56 | 59.65428 | 17.93465 | 140 ft | 4 kts | 79° |
| 2026-04-20 15:57 | 59.65425 | 17.93422 | 140 ft | 0 kts | 89° |
| 2026-04-20 15:58 | 59.65425 | 17.93414 | 140 ft | 2 kts | 103° |
| 2026-04-20 15:58 | 59.65435 | 17.93388 | 140 ft | 2 kts | 161° |
| 2026-04-20 15:58 | 59.65451 | 17.93389 | 140 ft | 2 kts | 219° |
| 2026-04-20 15:59 | 59.65452 | 17.93392 | 140 ft | 0 kts | 221° |
| 2026-04-20 16:03 | 59.65452 | 17.93391 | 140 ft | 1 kts | 221° |
| 2026-04-20 16:03 | 59.65439 | 17.93369 | 140 ft | 6 kts | 221° |
| 2026-04-20 16:03 | 59.65422 | 17.93339 | 140 ft | 2 kts | 221° |
| 2026-04-20 16:04 | 59.65411 | 17.93314 | 140 ft | 2 kts | 244° |
| 2026-04-20 16:04 | 59.65429 | 17.93239 | 140 ft | 13 kts | 328° |
| 2026-04-20 16:04 | 59.65498 | 17.93128 | 140 ft | 13 kts | 285° |
| 2026-04-20 16:04 | 59.65481 | 17.92946 | 140 ft | 15 kts | 251° |
| 2026-04-20 16:05 | 59.65438 | 17.92740 | 140 ft | 17 kts | 240° |
| 2026-04-20 16:05 | 59.65360 | 17.92548 | 140 ft | 19 kts | 224° |
| 2026-04-20 16:05 | 59.65246 | 17.92422 | 140 ft | 19 kts | 203° |
| 2026-04-20 16:05 | 59.65114 | 17.92352 | 140 ft | 20 kts | 190° |
| 2026-04-20 16:06 | 59.64967 | 17.92298 | 140 ft | 23 kts | 191° |
| 2026-04-20 16:06 | 59.64805 | 17.92238 | 140 ft | 25 kts | 191° |
| 2026-04-20 16:06 | 59.64629 | 17.92179 | 140 ft | 27 kts | 191° |
| 2026-04-20 16:06 | 59.64459 | 17.92116 | 140 ft | 14 kts | 191° |
| 2026-04-20 16:07 | 59.64415 | 17.91997 | 140 ft | 10 kts | 252° |
| 2026-04-20 16:07 | 59.64406 | 17.91885 | 140 ft | 0 kts | 271° |
| 2026-04-20 16:07 | 59.64407 | 17.91867 | 140 ft | 2 kts | 278° |
| 2026-04-20 16:08 | 59.64410 | 17.91826 | 141 ft | 3 kts | 278° |
| 2026-04-20 16:08 | 59.64416 | 17.91754 | 142 ft | 13 kts | 279° |
| 2026-04-20 16:08 | 59.64430 | 17.91587 | 146 ft | 0 kts | 289° |
| 2026-04-20 16:08 | 59.64432 | 17.91585 | 146 ft | 1 kts | 316° |
| 2026-04-20 16:09 | 59.64462 | 17.91590 | 146 ft | 11 kts | 8° |
| 2026-04-20 16:09 | 59.64692 | 17.91672 | 148 ft | 64 kts | 10° |
| 2026-04-20 16:09 | 59.65327 | 17.91902 | 146 ft | 118 kts | 10° |
| 2026-04-20 16:09 | 59.66271 | 17.92247 | 219 ft | 151 kts | 11° |
| 2026-04-20 16:10 | 59.67340 | 17.92637 | 685 ft | 161 kts | 11° |
| 2026-04-20 16:10 | 59.68491 | 17.93041 | 1136 ft | 179 kts | 11° |
| 2026-04-20 16:10 | 59.69765 | 17.93482 | 1613 ft | 193 kts | 11° |
| 2026-04-20 16:10 | 59.71116 | 17.93964 | 2421 ft | 198 kts | 12° |
| 2026-04-20 16:11 | 59.72431 | 17.94663 | 3507 ft | 206 kts | 28° |
| 2026-04-20 16:11 | 59.73488 | 17.96707 | 4361 ft | 226 kts | 60° |
| 2026-04-20 16:11 | 59.73940 | 17.99827 | 5249 ft | 246 kts | 78° |
| 2026-04-20 16:11 | 59.74237 | 18.03233 | 6314 ft | 252 kts | 77° |
| 2026-04-20 16:12 | 59.74545 | 18.06659 | 7527 ft | 254 kts | 78° |
| 2026-04-20 16:12 | 59.74855 | 18.10133 | 8611 ft | 258 kts | 78° |
| 2026-04-20 16:12 | 59.75169 | 18.13672 | 9711 ft | 262 kts | 78° |
| 2026-04-20 16:12 | 59.75301 | 18.17317 | 10724 ft | 270 kts | 88° |
| 2026-04-20 16:13 | 59.75278 | 18.21156 | 11346 ft | 288 kts | 88° |
| 2026-04-20 16:13 | 59.75259 | 18.25236 | 12002 ft | 303 kts | 88° |
| 2026-04-20 16:13 | 59.75240 | 18.29474 | 12833 ft | 309 kts | 88° |
| 2026-04-20 16:13 | 59.75224 | 18.33761 | 13801 ft | 313 kts | 88° |
| 2026-04-20 16:14 | 59.75480 | 18.38061 | 14608 ft | 315 kts | 73° |
| 2026-04-20 16:14 | 59.76301 | 18.42106 | 15419 ft | 319 kts | 65° |
| 2026-04-20 16:14 | 59.77203 | 18.46146 | 16207 ft | 323 kts | 66° |
| 2026-04-20 16:14 | 59.78103 | 18.50259 | 17024 ft | 326 kts | 66° |
| 2026-04-20 16:15 | 59.79001 | 18.54413 | 17801 ft | 330 kts | 66° |
| 2026-04-20 16:15 | 59.79904 | 18.58624 | 18575 ft | 333 kts | 67° |
| 2026-04-20 16:15 | 59.80813 | 18.62886 | 19241 ft | 337 kts | 67° |
| 2026-04-20 16:15 | 59.81728 | 18.67189 | 19910 ft | 339 kts | 67° |
| 2026-04-20 16:16 | 59.82649 | 18.71528 | 20557 ft | 342 kts | 67° |
| 2026-04-20 16:16 | 59.83573 | 18.75897 | 21234 ft | 345 kts | 67° |
| 2026-04-20 16:16 | 59.84504 | 18.80302 | 21890 ft | 347 kts | 67° |
| 2026-04-20 16:16 | 59.85441 | 18.84750 | 22518 ft | 350 kts | 67° |
| 2026-04-20 16:17 | 59.86384 | 18.89235 | 23145 ft | 353 kts | 67° |
| 2026-04-20 16:17 | 59.86957 | 18.91962 | 23517 ft | 355 kts | 67° |
| 2026-04-20 16:18 | 59.87885 | 18.96391 | 24075 ft | 358 kts | 68° |
| 2026-04-20 16:18 | 59.88844 | 19.00980 | 24575 ft | 360 kts | 68° |
| 2026-04-20 16:18 | 59.89808 | 19.05600 | 25083 ft | 362 kts | 68° |
| 2026-04-20 16:18 | 59.90776 | 19.10250 | 25572 ft | 365 kts | 68° |
| 2026-04-20 16:19 | 59.91622 | 19.14320 | 26001 ft | 367 kts | 68° |
| 2026-04-20 16:19 | 59.91993 | 19.16112 | 26178 ft | 367 kts | 68° |
| 2026-04-20 16:19 | 59.92655 | 19.19304 | 26503 ft | 369 kts | 68° |
| 2026-04-20 16:20 | 59.93636 | 19.24047 | 26965 ft | 371 kts | 69° |
| 2026-04-20 16:20 | 59.94615 | 19.28797 | 27539 ft | 370 kts | 69° |
| 2026-04-20 16:20 | 59.95594 | 19.33552 | 27993 ft | 372 kts | 69° |
| 2026-04-20 16:20 | 59.96580 | 19.38351 | 28431 ft | 375 kts | 69° |
| 2026-04-20 16:21 | 59.97384 | 19.43289 | 28923 ft | 374 kts | 77° |
| 2026-04-20 16:21 | 59.97996 | 19.48321 | 29512 ft | 372 kts | 77° |
| 2026-04-20 16:21 | 59.98613 | 19.53327 | 30107 ft | 370 kts | 77° |
| 2026-04-20 16:21 | 59.99222 | 19.58308 | 30656 ft | 368 kts | 77° |
| 2026-04-20 16:22 | 59.99824 | 19.63270 | 31112 ft | 367 kts | 77° |
| 2026-04-20 16:22 | 60.00425 | 19.68235 | 31365 ft | 370 kts | 77° |
| 2026-04-20 16:22 | 60.01618 | 19.78160 | 31403 ft | 366 kts | 77° |
| 2026-04-20 16:23 | 60.02800 | 19.88056 | 31401 ft | 366 kts | 77° |
| 2026-04-20 16:23 | 60.03972 | 19.97940 | 31400 ft | 366 kts | 77° |
| 2026-04-20 16:24 | 60.04942 | 20.06175 | 31399 ft | 366 kts | 77° |
| 2026-04-20 16:24 | 60.06101 | 20.16076 | 31397 ft | 366 kts | 77° |
| 2026-04-20 16:25 | 60.07253 | 20.25993 | 31394 ft | 366 kts | 77° |
| 2026-04-20 16:25 | 60.08398 | 20.35908 | 31404 ft | 364 kts | 77° |
| 2026-04-20 16:26 | 60.09524 | 20.45747 | 31387 ft | 362 kts | 78° |
| 2026-04-20 16:26 | 60.10644 | 20.55592 | 31384 ft | 362 kts | 78° |
| 2026-04-20 16:27 | 60.11756 | 20.65443 | 31374 ft | 362 kts | 78° |
| 2026-04-20 16:27 | 60.12861 | 20.75299 | 31373 ft | 362 kts | 78° |
| 2026-04-20 16:28 | 60.13960 | 20.85168 | 31375 ft | 362 kts | 78° |
| 2026-04-20 16:28 | 60.14461 | 20.89694 | 31375 ft | 362 kts | 78° |
| 2026-04-20 16:29 | 60.15480 | 20.98956 | 31366 ft | 362 kts | 78° |
| 2026-04-20 16:29 | 60.16560 | 21.08829 | 31364 ft | 362 kts | 78° |
| 2026-04-20 16:30 | 60.17632 | 21.18706 | 31373 ft | 361 kts | 78° |
| 2026-04-20 16:30 | 60.18695 | 21.28563 | 31358 ft | 361 kts | 78° |
| 2026-04-20 16:31 | 60.19752 | 21.38423 | 31343 ft | 361 kts | 78° |
| 2026-04-20 16:31 | 60.20793 | 21.48251 | 31357 ft | 359 kts | 78° |
| 2026-04-20 16:32 | 60.21802 | 21.57837 | 31359 ft | 336 kts | 78° |
| 2026-04-20 16:32 | 60.22274 | 21.62334 | 31340 ft | 321 kts | 78° |
| 2026-04-20 16:32 | 60.22724 | 21.66640 | 31261 ft | 310 kts | 78° |
| 2026-04-20 16:33 | 60.23171 | 21.70933 | 31025 ft | 319 kts | 78° |
| 2026-04-20 16:33 | 60.23628 | 21.75335 | 30574 ft | 323 kts | 78° |
| 2026-04-20 16:33 | 60.24088 | 21.79784 | 30161 ft | 325 kts | 78° |
| 2026-04-20 16:33 | 60.24546 | 21.84222 | 29721 ft | 324 kts | 78° |
| 2026-04-20 16:34 | 60.25001 | 21.88653 | 29316 ft | 322 kts | 78° |
| 2026-04-20 16:34 | 60.25452 | 21.93056 | 28954 ft | 320 kts | 78° |
| 2026-04-20 16:34 | 60.25896 | 21.97413 | 28545 ft | 317 kts | 78° |
| 2026-04-20 16:34 | 60.26336 | 22.01737 | 28165 ft | 313 kts | 78° |
| 2026-04-20 16:35 | 60.26769 | 22.06012 | 27791 ft | 310 kts | 78° |
| 2026-04-20 16:35 | 60.27196 | 22.10240 | 27435 ft | 306 kts | 78° |
| 2026-04-20 16:35 | 60.27617 | 22.14422 | 27080 ft | 303 kts | 78° |
| 2026-04-20 16:35 | 60.28031 | 22.18557 | 26735 ft | 299 kts | 78° |
| 2026-04-20 16:36 | 60.28440 | 22.22648 | 26404 ft | 296 kts | 78° |
| 2026-04-20 16:36 | 60.28839 | 22.26645 | 26070 ft | 293 kts | 78° |
| 2026-04-20 16:36 | 60.29246 | 22.30753 | 25748 ft | 298 kts | 78° |
| 2026-04-20 16:36 | 60.29654 | 22.34870 | 25406 ft | 302 kts | 78° |
| 2026-04-20 16:37 | 60.30066 | 22.39051 | 25087 ft | 304 kts | 78° |
| 2026-04-20 16:37 | 60.30476 | 22.43221 | 24763 ft | 304 kts | 78° |
| 2026-04-20 16:37 | 60.30879 | 22.47336 | 24441 ft | 303 kts | 78° |
| 2026-04-20 16:37 | 60.31285 | 22.51496 | 24087 ft | 302 kts | 78° |
| 2026-04-20 16:38 | 60.31687 | 22.55632 | 23760 ft | 299 kts | 78° |
| 2026-04-20 16:38 | 60.32084 | 22.59728 | 23398 ft | 296 kts | 78° |
| 2026-04-20 16:38 | 60.32475 | 22.63772 | 23076 ft | 292 kts | 78° |
| 2026-04-20 16:38 | 60.32859 | 22.67760 | 22764 ft | 287 kts | 78° |
| 2026-04-20 16:39 | 60.33236 | 22.71689 | 22460 ft | 283 kts | 78° |
| 2026-04-20 16:39 | 60.33606 | 22.75555 | 22179 ft | 279 kts | 78° |
| 2026-04-20 16:39 | 60.33974 | 22.79420 | 21878 ft | 283 kts | 78° |
| 2026-04-20 16:39 | 60.34349 | 22.83361 | 21570 ft | 288 kts | 78° |
| 2026-04-20 16:40 | 60.34728 | 22.87361 | 21265 ft | 291 kts | 78° |
| 2026-04-20 16:40 | 60.35106 | 22.91374 | 20957 ft | 291 kts | 78° |
| 2026-04-20 16:40 | 60.35484 | 22.95383 | 20653 ft | 290 kts | 78° |
| 2026-04-20 16:40 | 60.35859 | 22.99389 | 20348 ft | 290 kts | 78° |
| 2026-04-20 16:41 | 60.36232 | 23.03377 | 20046 ft | 289 kts | 78° |
| 2026-04-20 16:41 | 60.36603 | 23.07368 | 19744 ft | 289 kts | 78° |
| 2026-04-20 16:41 | 60.36973 | 23.11357 | 19442 ft | 288 kts | 78° |
| 2026-04-20 16:41 | 60.37341 | 23.15336 | 19146 ft | 288 kts | 78° |
| 2026-04-20 16:42 | 60.37708 | 23.19311 | 18855 ft | 287 kts | 78° |
| 2026-04-20 16:42 | 60.38072 | 23.23284 | 18533 ft | 287 kts | 78° |
| 2026-04-20 16:42 | 60.38435 | 23.27243 | 18195 ft | 286 kts | 78° |
| 2026-04-20 16:42 | 60.38788 | 23.31114 | 17881 ft | 282 kts | 78° |
| 2026-04-20 16:43 | 60.39139 | 23.34984 | 17596 ft | 278 kts | 78° |
| 2026-04-20 16:43 | 60.39486 | 23.38806 | 17305 ft | 274 kts | 78° |
| 2026-04-20 16:43 | 60.39825 | 23.42572 | 17019 ft | 270 kts | 78° |
| 2026-04-20 16:43 | 60.40160 | 23.46287 | 16736 ft | 269 kts | 78° |
| 2026-04-20 16:44 | 60.40498 | 23.50059 | 16449 ft | 275 kts | 78° |
| 2026-04-20 16:44 | 60.40841 | 23.53901 | 16174 ft | 279 kts | 78° |
| 2026-04-20 16:44 | 60.41185 | 23.57756 | 15874 ft | 278 kts | 78° |
| 2026-04-20 16:44 | 60.41526 | 23.61603 | 15579 ft | 277 kts | 78° |
| 2026-04-20 16:45 | 60.41866 | 23.65438 | 15288 ft | 276 kts | 78° |
| 2026-04-20 16:45 | 60.42204 | 23.69265 | 14998 ft | 276 kts | 78° |
| 2026-04-20 16:45 | 60.42541 | 23.73086 | 14716 ft | 275 kts | 78° |
| 2026-04-20 16:45 | 60.42875 | 23.76894 | 14427 ft | 275 kts | 78° |
| 2026-04-20 16:46 | 60.43209 | 23.80705 | 14152 ft | 274 kts | 78° |
| 2026-04-20 16:46 | 60.43541 | 23.84505 | 13875 ft | 273 kts | 78° |
| 2026-04-20 16:46 | 60.43839 | 23.88291 | 13570 ft | 273 kts | 81° |
| 2026-04-20 16:46 | 60.44058 | 23.92115 | 13230 ft | 274 kts | 81° |
| 2026-04-20 16:47 | 60.44282 | 23.95937 | 12930 ft | 273 kts | 81° |
| 2026-04-20 16:47 | 60.44508 | 23.99752 | 12626 ft | 273 kts | 81° |
| 2026-04-20 16:47 | 60.44734 | 24.03565 | 12314 ft | 272 kts | 82° |
| 2026-04-20 16:47 | 60.44702 | 24.07427 | 11843 ft | 278 kts | 92° |
| 2026-04-20 16:48 | 60.44550 | 24.11358 | 11358 ft | 280 kts | 91° |
| 2026-04-20 16:48 | 60.44421 | 24.15250 | 10905 ft | 275 kts | 91° |
| 2026-04-20 16:48 | 60.44302 | 24.19133 | 10469 ft | 278 kts | 90° |
| 2026-04-20 16:48 | 60.44189 | 24.23026 | 9957 ft | 275 kts | 90° |
| 2026-04-20 16:49 | 60.44081 | 24.26861 | 9452 ft | 270 kts | 90° |
| 2026-04-20 16:49 | 60.43978 | 24.30602 | 9014 ft | 264 kts | 90° |
| 2026-04-20 16:49 | 60.43877 | 24.34268 | 8560 ft | 258 kts | 90° |
| 2026-04-20 16:49 | 60.43779 | 24.37806 | 8137 ft | 252 kts | 89° |
| 2026-04-20 16:50 | 60.43681 | 24.41367 | 7711 ft | 248 kts | 90° |
| 2026-04-20 16:50 | 60.43569 | 24.44857 | 7299 ft | 249 kts | 95° |
| 2026-04-20 16:50 | 60.42940 | 24.48155 | 6940 ft | 258 kts | 123° |
| 2026-04-20 16:50 | 60.41586 | 24.50495 | 6663 ft | 264 kts | 150° |
| 2026-04-20 16:51 | 60.39820 | 24.51494 | 6449 ft | 264 kts | 168° |
| 2026-04-20 16:51 | 60.38049 | 24.52061 | 6213 ft | 252 kts | 168° |
| 2026-04-20 16:51 | 60.36353 | 24.52608 | 5970 ft | 241 kts | 168° |
| 2026-04-20 16:51 | 60.34733 | 24.53127 | 5747 ft | 231 kts | 168° |
| 2026-04-20 16:52 | 60.33149 | 24.53630 | 5495 ft | 230 kts | 168° |
| 2026-04-20 16:52 | 60.31570 | 24.54130 | 5312 ft | 227 kts | 168° |
| 2026-04-20 16:52 | 60.30037 | 24.54614 | 5152 ft | 216 kts | 168° |
| 2026-04-20 16:52 | 60.28590 | 24.55072 | 4876 ft | 206 kts | 168° |
| 2026-04-20 16:53 | 60.27188 | 24.55604 | 4519 ft | 204 kts | 157° |
| 2026-04-20 16:53 | 60.26046 | 24.57128 | 4167 ft | 194 kts | 135° |
| 2026-04-20 16:53 | 60.25052 | 24.58881 | 3917 ft | 186 kts | 135° |
| 2026-04-20 16:53 | 60.24103 | 24.60577 | 3736 ft | 179 kts | 134° |
| 2026-04-20 16:54 | 60.23174 | 24.62255 | 3579 ft | 180 kts | 134° |
| 2026-04-20 16:54 | 60.22248 | 24.63939 | 3409 ft | 179 kts | 133° |
| 2026-04-20 16:54 | 60.21620 | 24.65970 | 3164 ft | 168 kts | 97° |
| 2026-04-20 16:54 | 60.21742 | 24.68210 | 2991 ft | 161 kts | 65° |
| 2026-04-20 16:55 | 60.22234 | 24.70229 | 2806 ft | 160 kts | 55° |
| 2026-04-20 16:55 | 60.22888 | 24.71990 | 2586 ft | 154 kts | 46° |
| 2026-04-20 16:55 | 60.23589 | 24.73561 | 2393 ft | 149 kts | 45° |
| 2026-04-20 16:55 | 60.24290 | 24.75083 | 2194 ft | 147 kts | 45° |
| 2026-04-20 16:56 | 60.24970 | 24.76568 | 2037 ft | 139 kts | 45° |
| 2026-04-20 16:56 | 60.25609 | 24.77963 | 1834 ft | 133 kts | 45° |
| 2026-04-20 16:56 | 60.26226 | 24.79310 | 1680 ft | 131 kts | 45° |
| 2026-04-20 16:56 | 60.26842 | 24.80661 | 1476 ft | 130 kts | 45° |
| 2026-04-20 16:57 | 60.27452 | 24.81993 | 1293 ft | 132 kts | 45° |
| 2026-04-20 16:57 | 60.28073 | 24.83351 | 1108 ft | 131 kts | 45° |
| 2026-04-20 16:57 | 60.28691 | 24.84700 | 913 ft | 131 kts | 45° |
| 2026-04-20 16:57 | 60.29315 | 24.86055 | 727 ft | 134 kts | 45° |
| 2026-04-20 16:58 | 60.29944 | 24.87450 | 567 ft | 135 kts | 45° |
| 2026-04-20 16:58 | 60.30590 | 24.88847 | 383 ft | 136 kts | 43° |
| 2026-04-20 16:58 | 60.31235 | 24.90240 | 214 ft | 136 kts | 45° |
| 2026-04-20 16:58 | 60.31840 | 24.91587 | 152 ft | 113 kts | 47° |
| 2026-04-20 16:59 | 60.32227 | 24.92436 | 168 ft | 56 kts | 48° |
| 2026-04-20 16:59 | 60.32403 | 24.92881 | 175 ft | 34 kts | 64° |
| 2026-04-20 16:59 | 60.32461 | 24.93240 | 178 ft | 20 kts | 81° |
| 2026-04-20 16:59 | 60.32482 | 24.93437 | 176 ft | 0 kts | 77° |
| 2026-04-20 17:01 | 60.32482 | 24.93438 | 176 ft | 1 kts | 77° |
| 2026-04-20 17:02 | 60.32488 | 24.93494 | 175 ft | 9 kts | 74° |
| 2026-04-20 17:02 | 60.32505 | 24.93649 | 174 ft | 14 kts | 79° |
| 2026-04-20 17:02 | 60.32526 | 24.93834 | 173 ft | 2 kts | 76° |
| 2026-04-20 17:02 | 60.32528 | 24.93849 | 173 ft | 0 kts | 84° |
| 2026-04-20 17:03 | 60.32525 | 24.93866 | 173 ft | 1 kts | 104° |
| 2026-04-20 17:03 | 60.32537 | 24.93910 | 173 ft | 10 kts | 53° |
| 2026-04-20 17:03 | 60.32633 | 24.94126 | 174 ft | 30 kts | 47° |
| 2026-04-20 17:03 | 60.32762 | 24.94409 | 176 ft | 29 kts | 47° |
| 2026-04-20 17:04 | 60.32895 | 24.94700 | 177 ft | 26 kts | 46° |
| 2026-04-20 17:04 | 60.32909 | 24.94881 | 178 ft | 15 kts | 136° |
| 2026-04-20 17:04 | 60.32808 | 24.94969 | 178 ft | 16 kts | 162° |
| 2026-04-20 17:04 | 60.32749 | 24.95074 | 181 ft | 11 kts | 82° |
| 2026-04-20 17:05 | 60.32798 | 24.95210 | 181 ft | 15 kts | 49° |
| 2026-04-20 17:05 | 60.32890 | 24.95419 | 181 ft | 24 kts | 47° |
| 2026-04-20 17:05 | 60.32994 | 24.95644 | 182 ft | 16 kts | 46° |
| 2026-04-20 17:05 | 60.33029 | 24.95802 | 183 ft | 12 kts | 105° |
| 2026-04-20 17:06 | 60.33007 | 24.95843 | 182 ft | 9 kts | 148° |
| 2026-04-20 17:06 | 60.32904 | 24.95967 | 178 ft | 26 kts | 149° |
| 2026-04-20 17:06 | 60.32729 | 24.96170 | 175 ft | 31 kts | 150° |
| 2026-04-20 17:06 | 60.32586 | 24.96337 | 176 ft | 16 kts | 150° |
| 2026-04-20 17:07 | 60.32505 | 24.96435 | 176 ft | 14 kts | 147° |
| 2026-04-20 17:07 | 60.32417 | 24.96545 | 177 ft | 15 kts | 152° |
| 2026-04-20 17:07 | 60.32309 | 24.96659 | 171 ft | 11 kts | 151° |
| 2026-04-20 17:07 | 60.32307 | 24.96661 | 170 ft | 0 kts | 150° |
| 2026-04-20 17:08 | 60.31967 | 24.96739 | 169 ft | 0 kts | 174° |